createdAt,value
2018-09-13T00:00:04.977Z,99879.53
2018-09-13T00:00:36.145Z,99878.11
2018-09-13T00:01:07.342Z,99881.53
2018-09-13T00:01:38.520Z,99874.73
2018-09-13T00:02:09.647Z,99879.52
2018-09-13T00:02:40.757Z,99872.42
2018-09-13T00:03:11.865Z,99876.39
2018-09-13T00:03:43.081Z,99872.52
2018-09-13T00:04:14.228Z,99875.61
2018-09-13T00:04:45.509Z,99873.90
2018-09-13T00:05:16.663Z,99874.34
2018-09-13T00:05:47.850Z,99873.84
2018-09-13T00:06:18.953Z,99876.00
2018-09-13T00:06:50.123Z,99876.30
2018-09-13T00:07:21.288Z,99873.74
2018-09-13T00:07:52.456Z,99876.30
2018-09-13T00:08:23.645Z,99868.94
2018-09-13T00:08:54.782Z,99876.48
2018-09-13T00:09:25.981Z,99877.80
2018-09-13T00:09:57.111Z,99874.34
2018-09-13T00:10:28.221Z,99876.25
2018-09-13T00:10:59.362Z,99874.05
2018-09-13T00:11:30.481Z,99871.21
2018-09-13T00:12:01.614Z,99869.05
2018-09-13T00:12:32.782Z,99867.16
2018-09-13T00:13:03.962Z,99873.61
2018-09-13T00:13:35.118Z,99870.96
2018-09-13T00:14:06.292Z,99872.28
2018-09-13T00:14:37.500Z,99866.42
2018-09-13T00:15:08.656Z,99867.23
2018-09-13T00:15:39.801Z,99865.91
2018-09-13T00:16:10.901Z,99865.58
2018-09-13T00:16:42.036Z,99864.89
2018-09-13T00:17:13.152Z,99865.38
2018-09-13T00:17:44.294Z,99866.77
2018-09-13T00:18:15.412Z,99868.86
2018-09-13T00:18:46.528Z,99862.73
2018-09-13T00:19:17.643Z,99866.42
2018-09-13T00:19:48.791Z,99862.33
2018-09-13T00:20:19.963Z,99865.08
2018-09-13T00:20:51.088Z,99859.14
2018-09-13T00:21:22.321Z,99865.36
2018-09-13T00:21:53.457Z,99860.08
2018-09-13T00:22:24.641Z,99858.30
2018-09-13T00:22:55.754Z,99862.27
2018-09-13T00:23:26.878Z,99855.66
2018-09-13T00:23:58.023Z,99857.44
2018-09-13T00:24:29.140Z,99860.47
2018-09-13T00:25:00.339Z,99862.56
2018-09-13T00:25:31.447Z,99857.17
2018-09-13T00:26:02.558Z,99863.24
2018-09-13T00:26:33.734Z,99859.72
2018-09-13T00:27:04.866Z,99860.75
2018-09-13T00:27:35.984Z,99860.75
2018-09-13T00:28:07.104Z,99859.14
2018-09-13T00:28:38.294Z,99859.92
2018-09-13T00:29:09.499Z,99863.40
2018-09-13T00:29:40.684Z,99862.95
2018-09-13T00:30:11.799Z,99859.44
2018-09-13T00:30:42.907Z,99865.02
2018-09-13T00:31:14.046Z,99862.21
2018-09-13T00:31:45.234Z,99865.70
2018-09-13T00:32:16.348Z,99862.76
2018-09-13T00:32:47.514Z,99863.98
2018-09-13T00:33:18.648Z,99865.02
2018-09-13T00:33:49.852Z,99860.85
2018-09-13T00:34:20.986Z,99865.75
2018-09-13T00:34:52.121Z,99866.69
2018-09-13T00:35:23.258Z,99863.30
2018-09-13T00:35:54.390Z,99864.23
2018-09-13T00:36:25.633Z,99857.63
2018-09-13T00:36:56.808Z,99858.95
2018-09-13T00:37:28.064Z,99859.72
2018-09-13T00:37:59.185Z,99857.92
2018-09-13T00:38:30.314Z,99854.05
2018-09-13T00:39:01.513Z,99856.78
2018-09-13T00:39:32.619Z,99857.33
2018-09-13T00:40:03.765Z,99827.10
2018-09-13T00:40:34.884Z,99858.48
2018-09-13T00:41:06.006Z,99854.23
2018-09-13T00:41:37.195Z,99854.32
2018-09-13T00:42:08.369Z,99855.26
2018-09-13T00:42:39.605Z,99849.97
2018-09-13T00:43:10.777Z,99852.52
2018-09-13T00:43:41.948Z,99847.42
2018-09-13T00:44:13.079Z,99853.53
2018-09-13T00:44:44.191Z,99854.17
2018-09-13T00:45:15.298Z,99855.95
2018-09-13T00:45:46.524Z,99851.05
2018-09-13T00:46:17.630Z,99842.34
2018-09-13T00:46:48.757Z,99847.72
2018-09-13T00:47:19.883Z,99843.47
2018-09-13T00:47:51.061Z,99848.36
2018-09-13T00:48:22.185Z,99846.30
2018-09-13T00:48:53.293Z,99848.94
2018-09-13T00:49:24.452Z,99848.94
2018-09-13T00:49:55.573Z,99841.40
2018-09-13T00:50:26.696Z,99846.02
2018-09-13T00:50:57.843Z,99852.56
2018-09-13T00:51:28.947Z,99850.84
2018-09-13T00:52:00.083Z,99844.78
2018-09-13T00:52:31.211Z,99840.72
2018-09-13T00:53:02.349Z,99838.61
2018-09-13T00:53:33.477Z,99841.35
2018-09-13T00:54:04.660Z,99849.28
2018-09-13T00:54:35.826Z,99841.50
2018-09-13T00:55:06.960Z,99846.79
2018-09-13T00:55:38.096Z,99842.83
2018-09-13T00:56:09.281Z,99840.09
2018-09-13T00:56:40.431Z,99836.06
2018-09-13T00:57:11.612Z,99839.55
2018-09-13T00:57:42.743Z,99838.71
2018-09-13T00:58:13.878Z,99833.33
2018-09-13T00:58:45.056Z,99836.81
2018-09-13T00:59:16.164Z,99834.66
2018-09-13T00:59:47.448Z,99834.27
2018-09-13T01:00:18.640Z,99838.23
2018-09-13T01:00:49.757Z,99836.22
2018-09-13T01:01:20.895Z,99837.16
2018-09-13T01:01:52.027Z,99838.12
2018-09-13T01:02:23.146Z,99840.92
2018-09-13T01:02:54.314Z,99836.11
2018-09-13T01:03:25.419Z,99840.08
2018-09-13T01:03:56.536Z,99783.95
2018-09-13T01:04:27.655Z,99834.70
2018-09-13T01:04:58.823Z,99831.13
2018-09-13T01:05:29.939Z,99831.13
2018-09-13T01:06:01.065Z,99831.57
2018-09-13T01:06:32.240Z,99827.55
2018-09-13T01:07:03.386Z,99824.52
2018-09-13T01:07:34.548Z,99823.20
2018-09-13T01:08:05.720Z,99829.62
2018-09-13T01:08:36.862Z,99824.72
2018-09-13T01:09:07.974Z,99829.45
2018-09-13T01:09:39.089Z,99827.20
2018-09-13T01:10:10.231Z,99826.81
2018-09-13T01:10:41.370Z,99823.78
2018-09-13T01:11:12.484Z,99827.36
2018-09-13T01:11:43.597Z,99828.88
2018-09-13T01:12:14.724Z,99831.77
2018-09-13T01:12:45.835Z,99831.08
2018-09-13T01:13:16.947Z,99836.99
2018-09-13T01:13:48.058Z,99833.22
2018-09-13T01:14:19.250Z,99835.47
2018-09-13T01:14:50.461Z,99831.66
2018-09-13T01:15:21.612Z,99830.97
2018-09-13T01:15:52.755Z,99829.84
2018-09-13T01:16:23.892Z,99831.31
2018-09-13T01:16:55.067Z,99827.92
2018-09-13T01:17:26.185Z,99830.08
2018-09-13T01:17:57.299Z,99823.03
2018-09-13T01:18:28.492Z,99827.53
2018-09-13T01:18:59.622Z,99827.14
2018-09-13T01:19:30.782Z,99835.25
2018-09-13T01:20:01.902Z,99831.44
2018-09-13T01:20:33.063Z,99827.02
2018-09-13T01:21:04.227Z,99827.86
2018-09-13T01:21:35.341Z,99829.09
2018-09-13T01:22:06.451Z,99823.36
2018-09-13T01:22:37.582Z,99826.75
2018-09-13T01:23:08.720Z,99832.91
2018-09-13T01:23:39.855Z,99834.13
2018-09-13T01:24:10.992Z,99831.97
2018-09-13T01:24:42.115Z,99833.35
2018-09-13T01:25:13.224Z,99834.37
2018-09-13T01:25:44.405Z,99831.44
2018-09-13T01:26:15.648Z,99835.58
2018-09-13T01:26:46.755Z,99834.31
2018-09-13T01:27:17.937Z,99834.02
2018-09-13T01:27:49.051Z,99835.43
2018-09-13T01:28:20.229Z,99835.52
2018-09-13T01:28:51.432Z,99838.55
2018-09-13T01:29:22.567Z,99838.94
2018-09-13T01:29:53.713Z,99838.94
2018-09-13T01:30:24.824Z,99841.19
2018-09-13T01:30:56.024Z,99837.23
2018-09-13T01:31:27.228Z,99839.88
2018-09-13T01:31:58.398Z,99833.72
2018-09-13T01:32:29.571Z,99839.00
2018-09-13T01:33:00.737Z,99836.45
2018-09-13T01:33:31.870Z,99836.36
2018-09-13T01:34:03.025Z,99836.36
2018-09-13T01:34:34.164Z,99834.98
2018-09-13T01:35:05.286Z,99834.41
2018-09-13T01:35:36.522Z,99835.28
2018-09-13T01:36:07.665Z,99838.76
2018-09-13T01:36:38.815Z,99841.87
2018-09-13T01:37:09.959Z,99836.12
2018-09-13T01:37:41.137Z,99831.14
2018-09-13T01:38:12.333Z,99829.73
2018-09-13T01:38:43.507Z,99828.41
2018-09-13T01:39:14.643Z,99834.95
2018-09-13T01:39:45.765Z,99828.80
2018-09-13T01:40:16.933Z,99829.19
2018-09-13T01:40:48.062Z,99828.25
2018-09-13T01:41:19.201Z,99820.23
2018-09-13T01:41:50.331Z,99821.47
2018-09-13T01:42:21.510Z,99824.11
2018-09-13T01:42:52.616Z,99823.36
2018-09-13T01:43:23.719Z,99820.78
2018-09-13T01:43:54.951Z,99816.52
2018-09-13T01:44:26.069Z,99817.48
2018-09-13T01:44:57.252Z,99821.11
2018-09-13T01:45:28.420Z,99814.21
2018-09-13T01:45:59.597Z,99820.52
2018-09-13T01:46:30.723Z,99815.47
2018-09-13T01:47:01.858Z,99818.11
2018-09-13T01:47:32.985Z,99816.49
2018-09-13T01:48:04.171Z,99817.13
2018-09-13T01:48:35.344Z,99815.95
2018-09-13T01:49:06.522Z,99813.41
2018-09-13T01:49:37.694Z,99818.92
2018-09-13T01:50:46.203Z,99816.16
2018-09-13T01:51:17.381Z,99817.23
2018-09-13T01:51:48.494Z,99818.73
2018-09-13T01:52:19.708Z,99813.06
2018-09-13T01:52:50.816Z,99819.57
2018-09-13T01:53:21.997Z,99815.25
2018-09-13T01:53:53.122Z,99818.64
2018-09-13T01:54:24.234Z,99814.68
2018-09-13T01:54:55.346Z,99818.64
2018-09-13T01:55:26.450Z,99821.28
2018-09-13T01:55:57.560Z,99825.80
2018-09-13T01:56:28.666Z,99823.70
2018-09-13T01:56:59.790Z,99825.41
2018-09-13T01:57:30.915Z,99822.30
2018-09-13T01:58:02.101Z,99820.89
2018-09-13T01:58:33.271Z,99822.99
2018-09-13T01:59:04.451Z,99822.45
2018-09-13T01:59:35.566Z,99816.78
2018-09-13T02:00:06.670Z,99816.21
2018-09-13T02:00:37.798Z,99814.05
2018-09-13T02:01:08.928Z,99813.58
2018-09-13T02:01:40.039Z,99808.69
2018-09-13T02:02:11.157Z,99812.59
2018-09-13T02:02:42.269Z,99814.27
2018-09-13T02:03:13.372Z,99809.95
2018-09-13T02:03:44.580Z,99814.75
2018-09-13T02:04:15.712Z,99812.20
2018-09-13T02:04:46.854Z,99810.09
2018-09-13T02:05:17.975Z,99808.54
2018-09-13T02:05:49.106Z,99807.52
2018-09-13T02:06:20.249Z,99813.94
2018-09-13T02:06:51.393Z,99808.27
2018-09-13T02:07:22.560Z,99806.11
2018-09-13T02:07:53.674Z,99811.39
2018-09-13T02:08:24.782Z,99810.46
2018-09-13T02:08:55.961Z,99807.82
2018-09-13T02:09:27.149Z,99805.39
2018-09-13T02:09:58.298Z,99802.66
2018-09-13T02:10:29.438Z,99807.10
2018-09-13T02:11:00.539Z,99804.86
2018-09-13T02:11:31.661Z,99803.98
2018-09-13T02:12:02.766Z,99804.08
2018-09-13T02:12:33.891Z,99804.79
2018-09-13T02:13:05.116Z,99806.05
2018-09-13T02:13:36.295Z,99804.10
2018-09-13T02:14:07.464Z,99804.58
2018-09-13T02:14:38.576Z,99800.23
2018-09-13T02:15:09.760Z,99804.34
2018-09-13T02:15:40.912Z,99805.66
2018-09-13T02:16:12.019Z,99808.48
2018-09-13T02:16:43.157Z,99806.94
2018-09-13T02:17:14.298Z,99803.70
2018-09-13T02:17:45.402Z,99799.41
2018-09-13T02:18:16.509Z,99809.21
2018-09-13T02:18:47.624Z,99812.86
2018-09-13T02:19:18.758Z,99807.03
2018-09-13T02:19:49.913Z,99804.88
2018-09-13T02:20:21.032Z,99801.63
2018-09-13T02:20:52.186Z,99802.73
2018-09-13T02:21:23.296Z,99801.77
2018-09-13T02:21:54.478Z,99797.78
2018-09-13T02:22:25.601Z,99798.80
2018-09-13T02:22:56.788Z,99801.48
2018-09-13T02:23:27.968Z,99797.39
2018-09-13T02:23:59.092Z,99796.30
2018-09-13T02:24:30.207Z,99796.30
2018-09-13T02:25:01.325Z,99795.28
2018-09-13T02:25:32.441Z,99799.15
2018-09-13T02:26:03.587Z,99799.45
2018-09-13T02:26:34.760Z,99799.09
2018-09-13T02:27:05.891Z,99795.50
2018-09-13T02:27:37.004Z,99787.98
2018-09-13T02:28:08.163Z,99794.57
2018-09-13T02:28:39.330Z,99793.43
2018-09-13T02:29:10.565Z,99793.43
2018-09-13T02:29:41.691Z,99791.11
2018-09-13T02:30:12.848Z,99786.76
2018-09-13T02:30:44.056Z,99793.97
2018-09-13T02:31:15.209Z,99789.63
2018-09-13T02:31:46.345Z,99784.75
2018-09-13T02:32:17.514Z,99786.69
2018-09-13T02:32:48.624Z,99790.55
2018-09-13T02:33:19.770Z,99784.45
2018-09-13T02:33:50.903Z,99790.73
2018-09-13T02:34:22.112Z,99786.30
2018-09-13T02:34:53.282Z,99788.09
2018-09-13T02:35:24.400Z,99790.34
2018-09-13T02:35:55.582Z,99789.64
2018-09-13T02:36:26.693Z,99784.41
2018-09-13T02:36:57.813Z,99791.14
2018-09-13T02:37:28.933Z,99791.31
2018-09-13T02:38:00.037Z,99784.64
2018-09-13T02:38:31.232Z,99786.04
2018-09-13T02:39:02.433Z,99784.86
2018-09-13T02:39:33.586Z,99786.83
2018-09-13T02:40:04.756Z,99783.62
2018-09-13T02:40:35.903Z,99785.73
2018-09-13T02:41:07.072Z,99786.97
2018-09-13T02:41:38.168Z,99782.88
2018-09-13T02:42:09.338Z,99787.27
2018-09-13T02:42:41.265Z,99785.51
2018-09-13T02:43:12.447Z,99782.09
2018-09-13T02:43:43.582Z,99784.24
2018-09-13T02:44:14.718Z,99788.36
2018-09-13T02:44:45.883Z,99784.33
2018-09-13T02:45:16.991Z,99789.16
2018-09-13T02:45:48.180Z,99783.09
2018-09-13T02:46:19.373Z,99787.13
2018-09-13T02:46:50.484Z,99790.91
2018-09-13T02:47:21.597Z,99784.94
2018-09-13T02:47:52.720Z,99791.61
2018-09-13T02:48:23.976Z,99789.14
2018-09-13T02:48:55.103Z,99788.19
2018-09-13T02:49:26.223Z,99790.20
2018-09-13T02:49:57.389Z,99788.05
2018-09-13T02:50:28.549Z,99789.89
2018-09-13T02:50:59.716Z,99792.61
2018-09-13T02:51:30.915Z,99790.06
2018-09-13T02:52:02.033Z,99791.59
2018-09-13T02:52:33.148Z,99789.27
2018-09-13T02:53:04.305Z,99788.95
2018-09-13T02:53:35.455Z,99787.15
2018-09-13T02:54:06.563Z,99792.10
2018-09-13T02:54:37.729Z,99786.39
2018-09-13T02:55:08.887Z,99788.63
2018-09-13T02:55:40.031Z,99790.34
2018-09-13T02:56:11.198Z,99794.42
2018-09-13T02:56:42.341Z,99790.08
2018-09-13T02:57:13.514Z,99791.70
2018-09-13T02:57:44.679Z,99794.42
2018-09-13T02:58:15.804Z,99790.47
2018-09-13T02:58:46.903Z,99791.79
2018-09-13T02:59:18.026Z,99787.76
2018-09-13T02:59:49.161Z,99789.78
2018-09-13T03:00:20.272Z,99791.66
2018-09-13T03:00:51.424Z,99792.19
2018-09-13T03:01:22.539Z,99793.35
2018-09-13T03:01:53.656Z,99788.77
2018-09-13T03:02:24.832Z,99792.80
2018-09-13T03:02:55.935Z,99791.56
2018-09-13T03:03:27.036Z,99792.16
2018-09-13T03:03:58.176Z,99787.06
2018-09-13T03:04:29.292Z,99786.59
2018-09-13T03:05:00.418Z,99785.40
2018-09-13T03:05:31.515Z,99788.82
2018-09-13T03:06:02.671Z,99787.98
2018-09-13T03:06:33.897Z,99788.74
2018-09-13T03:07:05.018Z,99782.92
2018-09-13T03:07:36.136Z,99793.38
2018-09-13T03:08:07.254Z,99790.83
2018-09-13T03:08:38.384Z,99785.09
2018-09-13T03:09:09.512Z,99789.11
2018-09-13T03:09:40.636Z,99790.83
2018-09-13T03:10:11.750Z,99784.77
2018-09-13T03:10:42.876Z,99789.98
2018-09-13T03:11:14.024Z,99788.19
2018-09-13T03:11:45.212Z,99790.83
2018-09-13T03:12:16.348Z,99788.82
2018-09-13T03:12:47.469Z,99787.11
2018-09-13T03:13:18.641Z,99784.42
2018-09-13T03:13:49.767Z,99788.13
2018-09-13T03:14:20.926Z,99787.61
2018-09-13T03:14:52.040Z,99783.12
2018-09-13T03:15:23.289Z,99787.44
2018-09-13T03:15:54.451Z,99644.54
2018-09-13T03:16:25.625Z,99788.10
2018-09-13T03:16:56.792Z,99786.23
2018-09-13T03:17:28.014Z,99783.98
2018-09-13T03:17:59.145Z,99788.33
2018-09-13T03:18:30.262Z,99788.95
2018-09-13T03:19:01.392Z,99790.36
2018-09-13T03:19:32.491Z,99789.48
2018-09-13T03:20:03.676Z,99785.48
2018-09-13T03:20:34.918Z,99789.88
2018-09-13T03:21:06.084Z,99789.65
2018-09-13T03:21:37.239Z,99789.17
2018-09-13T03:22:08.365Z,99788.41
2018-09-13T03:22:39.469Z,99787.70
2018-09-13T03:23:10.689Z,99793.02
2018-09-13T03:23:41.890Z,99792.66
2018-09-13T03:24:13.052Z,99795.73
2018-09-13T03:24:44.180Z,99788.31
2018-09-13T03:25:15.278Z,99792.88
2018-09-13T03:25:46.488Z,99789.92
2018-09-13T03:26:17.650Z,99789.05
2018-09-13T03:26:48.853Z,99793.41
2018-09-13T03:27:19.989Z,99793.56
2018-09-13T03:27:51.123Z,99793.64
2018-09-13T03:28:22.246Z,99792.94
2018-09-13T03:28:53.414Z,99763.53
2018-09-13T03:29:24.517Z,99792.45
2018-09-13T03:29:55.695Z,99789.83
2018-09-13T03:30:26.851Z,99789.34
2018-09-13T03:30:58.063Z,99792.38
2018-09-13T03:31:29.279Z,99791.53
2018-09-13T03:32:00.395Z,99792.64
2018-09-13T03:32:31.511Z,99787.69
2018-09-13T03:33:02.695Z,99791.95
2018-09-13T03:33:33.872Z,99796.66
2018-09-13T03:34:04.991Z,99794.59
2018-09-13T03:34:36.102Z,99791.47
2018-09-13T03:35:07.212Z,99792.88
2018-09-13T03:35:38.323Z,99794.59
2018-09-13T03:36:09.588Z,99787.30
2018-09-13T03:36:40.787Z,99786.50
2018-09-13T03:37:11.888Z,99790.66
2018-09-13T03:37:43.052Z,99785.95
2018-09-13T03:38:14.179Z,99783.84
2018-09-13T03:38:45.349Z,99783.53
2018-09-13T03:39:16.495Z,99787.04
2018-09-13T03:39:47.663Z,99786.09
2018-09-13T03:40:18.838Z,99783.45
2018-09-13T03:40:49.938Z,99788.72
2018-09-13T03:41:21.163Z,99785.72
2018-09-13T03:41:52.385Z,99783.09
2018-09-13T03:42:23.468Z,99786.96
2018-09-13T03:42:54.638Z,99785.72
2018-09-13T03:43:25.816Z,99791.83
2018-09-13T03:43:56.984Z,99785.33
2018-09-13T03:44:28.092Z,99787.17
2018-09-13T03:44:59.208Z,99788.64
2018-09-13T03:45:30.316Z,99788.37
2018-09-13T03:46:01.423Z,99791.56
2018-09-13T03:46:32.530Z,99791.93
2018-09-13T03:47:03.687Z,99791.09
2018-09-13T03:47:34.798Z,99782.03
2018-09-13T03:48:05.967Z,99791.30
2018-09-13T03:48:37.070Z,99791.85
2018-09-13T03:49:08.275Z,99793.27
2018-09-13T03:49:39.402Z,99787.36
2018-09-13T03:50:10.514Z,99792.23
2018-09-13T03:50:41.681Z,99788.84
2018-09-13T03:51:12.790Z,99793.10
2018-09-13T03:51:43.989Z,99788.36
2018-09-13T03:52:15.094Z,99785.13
2018-09-13T03:52:46.217Z,99789.47
2018-09-13T03:53:17.388Z,99789.39
2018-09-13T03:53:48.522Z,99789.00
2018-09-13T03:54:19.688Z,99791.23
2018-09-13T03:54:50.811Z,99784.21
2018-09-13T03:55:21.940Z,99789.08
2018-09-13T03:55:53.099Z,99786.05
2018-09-13T03:56:24.266Z,99784.94
2018-09-13T03:56:55.388Z,99792.91
2018-09-13T03:57:26.501Z,99784.77
2018-09-13T03:57:57.690Z,99789.25
2018-09-13T03:58:28.836Z,99785.81
2018-09-13T03:59:00.018Z,99788.09
2018-09-13T03:59:31.157Z,99786.38
2018-09-13T04:00:02.303Z,99782.03
2018-09-13T04:00:33.473Z,99784.66
2018-09-13T04:01:04.618Z,99789.13
2018-09-13T04:01:35.748Z,99787.97
2018-09-13T04:02:06.959Z,99787.17
2018-09-13T04:02:38.099Z,99788.56
2018-09-13T04:03:09.308Z,99789.80
2018-09-13T04:03:40.465Z,99790.20
2018-09-13T04:04:11.588Z,99789.68
2018-09-13T04:04:42.708Z,99787.89
2018-09-13T04:05:13.817Z,99787.89
2018-09-13T04:05:44.995Z,99791.31
2018-09-13T04:06:16.121Z,99790.44
2018-09-13T04:06:47.286Z,99787.29
2018-09-13T04:07:18.452Z,99787.69
2018-09-13T04:07:49.653Z,99792.95
2018-09-13T04:08:20.794Z,99786.38
2018-09-13T04:08:51.939Z,99784.66
2018-09-13T04:09:23.113Z,99789.00
2018-09-13T04:09:54.273Z,99780.72
2018-09-13T04:10:25.393Z,99785.98
2018-09-13T04:10:56.516Z,99784.27
2018-09-13T04:11:27.615Z,99782.42
2018-09-13T04:11:58.769Z,99780.56
2018-09-13T04:12:29.874Z,99780.35
2018-09-13T04:13:00.975Z,99783.70
2018-09-13T04:13:32.082Z,99781.78
2018-09-13T04:14:03.249Z,99784.21
2018-09-13T04:14:34.431Z,99782.16
2018-09-13T04:15:05.549Z,99778.61
2018-09-13T04:15:36.669Z,99780.24
2018-09-13T04:16:07.770Z,99782.80
2018-09-13T04:16:38.956Z,99779.16
2018-09-13T04:17:10.196Z,99788.25
2018-09-13T04:17:41.300Z,99781.91
2018-09-13T04:18:12.403Z,99783.61
2018-09-13T04:18:43.575Z,99783.09
2018-09-13T04:19:14.813Z,99783.09
2018-09-13T04:19:45.907Z,99785.09
2018-09-13T04:20:17.035Z,99784.95
2018-09-13T04:20:48.147Z,99784.27
2018-09-13T04:21:19.284Z,99784.27
2018-09-13T04:21:50.471Z,99784.34
2018-09-13T04:22:21.618Z,99780.79
2018-09-13T04:22:52.780Z,99778.60
2018-09-13T04:23:23.899Z,99780.00
2018-09-13T04:23:55.006Z,99775.26
2018-09-13T04:24:26.133Z,99777.50
2018-09-13T04:24:57.255Z,99779.61
2018-09-13T04:25:28.407Z,99779.30
2018-09-13T04:25:59.579Z,99781.09
2018-09-13T04:26:30.735Z,99778.45
2018-09-13T04:27:01.912Z,99779.77
2018-09-13T04:27:33.067Z,99781.09
2018-09-13T04:28:04.205Z,99780.08
2018-09-13T04:28:35.380Z,99778.38
2018-09-13T04:29:06.580Z,99781.80
2018-09-13T04:29:37.696Z,99784.97
2018-09-13T04:30:08.829Z,99785.20
2018-09-13T04:30:39.976Z,99786.39
2018-09-13T04:31:11.114Z,99783.51
2018-09-13T04:31:42.260Z,99788.16
2018-09-13T04:32:13.367Z,99789.58
2018-09-13T04:32:44.467Z,99779.66
2018-09-13T04:33:15.579Z,99786.95
2018-09-13T04:33:46.701Z,99782.16
2018-09-13T04:34:17.919Z,99787.96
2018-09-13T04:34:49.085Z,99788.44
2018-09-13T04:35:20.267Z,99788.05
2018-09-13T04:35:51.460Z,99780.06
2018-09-13T04:36:22.540Z,99785.55
2018-09-13T04:36:53.759Z,99783.62
2018-09-13T04:37:24.882Z,99788.36
2018-09-13T04:37:55.981Z,99784.86
2018-09-13T04:38:27.120Z,99786.73
2018-09-13T04:38:58.239Z,99785.81
2018-09-13T04:39:29.355Z,99786.04
2018-09-13T04:40:00.545Z,99787.14
2018-09-13T04:40:31.685Z,99787.89
2018-09-13T04:41:02.895Z,99784.20
2018-09-13T04:41:34.069Z,99781.25
2018-09-13T04:42:05.176Z,99788.59
2018-09-13T04:42:36.443Z,99788.98
2018-09-13T04:43:07.669Z,99792.41
2018-09-13T04:43:38.798Z,99788.45
2018-09-13T04:44:09.949Z,99797.12
2018-09-13T04:44:41.100Z,99788.85
2018-09-13T04:45:12.253Z,99792.33
2018-09-13T04:45:43.401Z,99790.17
2018-09-13T04:46:14.524Z,99788.77
2018-09-13T04:46:45.637Z,99788.51
2018-09-13T04:47:16.820Z,99792.46
2018-09-13T04:47:47.979Z,99788.37
2018-09-13T04:48:19.147Z,99785.88
2018-09-13T04:48:50.343Z,99789.91
2018-09-13T04:49:21.475Z,99785.65
2018-09-13T04:49:52.612Z,99786.57
2018-09-13T04:50:23.724Z,99784.89
2018-09-13T04:50:54.888Z,99786.22
2018-09-13T04:51:25.993Z,99783.89
2018-09-13T04:51:57.163Z,99784.28
2018-09-13T04:52:28.321Z,99788.70
2018-09-13T04:52:59.439Z,99794.06
2018-09-13T04:53:30.549Z,99783.73
2018-09-13T04:54:01.676Z,99782.09
2018-09-13T04:54:32.821Z,99783.31
2018-09-13T04:55:04.015Z,99789.19
2018-09-13T04:55:35.249Z,99782.13
2018-09-13T04:56:06.369Z,99788.86
2018-09-13T04:56:37.498Z,99787.30
2018-09-13T04:57:08.672Z,99779.55
2018-09-13T04:57:39.857Z,99785.66
2018-09-13T04:58:10.969Z,99776.42
2018-09-13T04:58:42.087Z,99779.27
2018-09-13T04:59:13.231Z,99781.93
2018-09-13T04:59:44.374Z,99779.03
2018-09-13T05:00:15.578Z,99785.02
2018-09-13T05:00:46.803Z,99782.56
2018-09-13T05:01:17.961Z,99778.61
2018-09-13T05:01:49.063Z,99775.94
2018-09-13T05:02:20.220Z,99779.36
2018-09-13T05:02:51.374Z,99780.63
2018-09-13T05:03:22.556Z,99775.23
2018-09-13T05:03:53.676Z,99781.36
2018-09-13T05:04:24.810Z,99780.14
2018-09-13T05:04:55.990Z,99781.44
2018-09-13T05:05:27.095Z,99776.12
2018-09-13T05:05:58.210Z,99782.70
2018-09-13T05:06:29.394Z,99788.53
2018-09-13T05:07:00.528Z,99784.92
2018-09-13T05:07:31.667Z,99784.62
2018-09-13T05:08:02.833Z,99779.67
2018-09-13T05:08:34.020Z,99779.92
2018-09-13T05:09:05.183Z,99781.41
2018-09-13T05:09:36.369Z,99781.88
2018-09-13T05:10:07.621Z,99785.25
2018-09-13T05:10:38.749Z,99779.63
2018-09-13T05:11:09.890Z,99784.47
2018-09-13T05:11:41.037Z,99775.30
2018-09-13T05:12:12.198Z,99783.38
2018-09-13T05:12:43.424Z,99779.48
2018-09-13T05:13:14.569Z,99780.97
2018-09-13T05:13:45.760Z,99786.81
2018-09-13T05:14:16.867Z,99782.00
2018-09-13T05:14:48.002Z,99783.05
2018-09-13T05:15:19.220Z,99786.53
2018-09-13T05:15:50.326Z,99779.02
2018-09-13T05:16:21.489Z,99782.47
2018-09-13T05:16:52.666Z,99782.70
2018-09-13T05:17:23.776Z,99780.86
2018-09-13T05:17:54.917Z,99781.89
2018-09-13T05:18:26.042Z,99787.92
2018-09-13T05:18:57.160Z,99779.99
2018-09-13T05:19:28.331Z,99776.23
2018-09-13T05:19:59.506Z,99782.58
2018-09-13T05:20:31.550Z,99782.30
2018-09-13T05:21:02.719Z,99784.01
2018-09-13T05:21:33.841Z,99764.42
2018-09-13T05:22:05.020Z,99787.24
2018-09-13T05:22:36.195Z,99786.02
2018-09-13T05:23:07.289Z,99789.23
2018-09-13T05:23:38.407Z,99780.30
2018-09-13T05:24:09.597Z,99784.65
2018-09-13T05:24:40.778Z,99788.04
2018-09-13T05:25:11.963Z,99788.98
2018-09-13T05:25:43.188Z,99788.78
2018-09-13T05:26:14.337Z,99786.11
2018-09-13T05:26:45.514Z,99783.62
2018-09-13T05:27:16.632Z,99783.24
2018-09-13T05:27:47.812Z,99786.86
2018-09-13T05:28:19.000Z,99784.11
2018-09-13T05:28:50.129Z,99784.02
2018-09-13T05:29:21.295Z,99760.00
2018-09-13T05:29:52.409Z,99783.08
2018-09-13T05:30:23.524Z,99784.56
2018-09-13T05:30:54.684Z,99783.62
2018-09-13T05:31:25.872Z,99782.98
2018-09-13T05:31:57.019Z,99783.16
2018-09-13T05:32:28.294Z,99782.45
2018-09-13T05:32:59.541Z,99781.96
2018-09-13T05:33:30.666Z,99782.61
2018-09-13T05:34:01.799Z,99780.52
2018-09-13T05:34:33.050Z,99783.16
2018-09-13T05:35:04.244Z,99780.06
2018-09-13T05:35:35.357Z,99787.45
2018-09-13T05:36:06.501Z,99787.62
2018-09-13T05:36:37.674Z,99778.08
2018-09-13T05:37:08.853Z,99787.59
2018-09-13T05:37:39.989Z,99783.08
2018-09-13T05:38:11.115Z,99787.80
2018-09-13T05:38:42.255Z,99783.12
2018-09-13T05:39:13.408Z,99780.65
2018-09-13T05:39:44.653Z,99788.32
2018-09-13T05:40:15.859Z,99790.19
2018-09-13T05:40:47.132Z,99786.23
2018-09-13T05:41:18.255Z,99786.03
2018-09-13T05:41:49.366Z,99785.97
2018-09-13T05:42:20.507Z,99786.42
2018-09-13T05:42:51.624Z,99785.87
2018-09-13T05:43:22.749Z,99784.00
2018-09-13T05:43:53.872Z,99790.80
2018-09-13T05:44:25.009Z,99787.67
2018-09-13T05:44:56.212Z,99791.38
2018-09-13T05:45:27.335Z,99783.98
2018-09-13T05:45:58.498Z,99793.47
2018-09-13T05:46:29.610Z,99786.09
2018-09-13T05:47:00.728Z,99790.60
2018-09-13T05:47:31.899Z,99787.95
2018-09-13T05:48:03.051Z,99791.57
2018-09-13T05:48:34.217Z,99789.66
2018-09-13T05:49:05.374Z,99792.05
2018-09-13T05:49:36.505Z,99789.28
2018-09-13T05:50:07.691Z,99792.82
2018-09-13T05:50:38.829Z,99789.98
2018-09-13T05:51:10.098Z,99788.11
2018-09-13T05:51:41.589Z,99787.13
2018-09-13T05:52:12.710Z,99791.32
2018-09-13T05:52:43.822Z,99785.44
2018-09-13T05:53:14.969Z,99789.15
2018-09-13T05:53:46.141Z,99789.05
2018-09-13T05:54:17.289Z,99793.30
2018-09-13T05:54:48.545Z,99786.80
2018-09-13T05:55:19.767Z,99792.00
2018-09-13T05:55:50.895Z,99791.73
2018-09-13T05:56:22.017Z,99788.81
2018-09-13T05:56:53.127Z,99789.55
2018-09-13T05:57:24.266Z,99790.70
2018-09-13T05:57:55.419Z,99789.94
2018-09-13T05:58:26.612Z,99790.61
2018-09-13T05:58:57.742Z,99790.13
2018-09-13T05:59:28.847Z,99794.97
2018-09-13T06:00:00.002Z,99789.47
2018-09-13T06:00:31.219Z,99791.66
2018-09-13T06:01:02.403Z,99794.38
2018-09-13T06:01:33.529Z,99787.91
2018-09-13T06:02:04.663Z,99785.64
2018-09-13T06:02:35.811Z,99792.05
2018-09-13T06:03:06.959Z,99787.31
2018-09-13T06:03:38.152Z,99785.72
2018-09-13T06:04:09.324Z,99786.30
2018-09-13T06:04:40.463Z,99796.13
2018-09-13T06:05:11.642Z,99790.73
2018-09-13T06:05:42.831Z,99795.37
2018-09-13T06:06:13.994Z,99793.77